This is the latest recevied weather packets stored in our database for station/object KI5MKI. If no packets are shown the sender has not sent any weather packets the latest 10 day(s).
| Time | Temp. | Humidity | Pressure | Rain* | Wind** | Luminosity | Snow |
|---|---|---|---|---|---|---|---|
| 1777851969 | 25.56° C | 39% | 1016.8 hPa | 0 mm | - | 148 W/m² | - |
| 1777851666 | 25.56° C | 37% | 1016.7 hPa | 0 mm | - | 161 W/m² | - |
| 1777851363 | 26.11° C | 37% | 1016.7 hPa | 0 mm | - | 177 W/m² | - |
| 1777851058 | 26.11° C | 37% | 1016.9 hPa | 0 mm | - | 191 W/m² | - |
| 1777850755 | 26.11° C | 36% | 1016.9 hPa | 0 mm | - | 206 W/m² | - |
| 1777850453 | 26.11° C | 38% | 1017 hPa | 0 mm | - | 229 W/m² | - |
| 1777850151 | 26.11° C | 35% | 1016.9 hPa | 0 mm | - | 249 W/m² | - |
| 1777849847 | 26.11° C | 36% | 1016.7 hPa | 0 mm | - | 269 W/m² | - |
| 1777849544 | 26.67° C | 35% | 1016.8 hPa | 0 mm | - | 292 W/m² | - |
| 1777849241 | 26.67° C | 37% | 1017 hPa | 0 mm | - | 311 W/m² | - |
| 1777848938 | 26.67° C | 36% | 1016.7 hPa | 0 mm | - | 328 W/m² | - |
| 1777848633 | 27.22° C | 34% | 1016.9 hPa | 0 mm | - | 347 W/m² | - |
| 1777848331 | 27.22° C | 35% | 1017 hPa | 0 mm | - | 372 W/m² | - |
| 1777848029 | 26.67° C | 36% | 1017 hPa | 0 mm | - | 393 W/m² | - |
| 1777847727 | 26.67° C | 35% | 1017.1 hPa | 0 mm | - | 418 W/m² | - |
| 1777847422 | 26.11° C | 39% | 1017.1 hPa | 0 mm | - | 413 W/m² | - |
| 1777847120 | 26.11° C | 39% | 1017.2 hPa | 0 mm | - | 453 W/m² | - |
| 1777846818 | 26.67° C | 36% | 1017.1 hPa | 0 mm | - | 465 W/m² | - |
| 1777846516 | 26.67° C | 38% | 1017 hPa | 0 mm | - | 487 W/m² | - |
| 1777846214 | 26.67° C | 36% | 1017.1 hPa | 0 mm | - | 501 W/m² | - |
| 1777845909 | 26.67° C | 37% | 1017 hPa | 0 mm | - | 521 W/m² | - |
| 1777845606 | 27.22° C | 35% | 1017.2 hPa | 0 mm | - | 546 W/m² | - |
| 1777845303 | 27.22° C | 36% | 1017.1 hPa | 0 mm | - | 564 W/m² | - |
| 1777845000 | 26.67° C | 36% | 1017.3 hPa | 0 mm | - | 534 W/m² | - |
| 1777844699 | 27.22° C | 35% | 1017.4 hPa | 0 mm | - | 592 W/m² | - |
* Rain latest hour (hover to see other rain measurements)
** Current wind speed in m/s (hover to see current wind gust speed)